Time;durP1;ratioP1;P1;durP2;ratioP2;P2;SDS_P1;SDS_P2;PMS_P1;PMS_P2;Temp;Humidity;BMP_temperature;BMP_pressure;BME280_temperature;BME280_humidity;BME280_pressure;Samples;Min_cycle;Max_cycle;Signal;HPM_P1;HPM_P2
2021/03/07 00:02:23;;;;;;;6.70;6.03;;;0.00;96.30;;;;;;6179193;23;20618;-83
2021/03/07 00:04:51;;;;;;;7.97;6.00;;;0.00;96.30;;;;;;6180866;23;20227;-84
2021/03/07 00:07:18;;;;;;;9.15;6.45;;;-0.10;96.80;;;;;;6180760;23;20554;-81
2021/03/07 00:09:45;;;;;;;10.38;6.30;;;-0.10;97.20;;;;;;6179257;23;20208;-82
2021/03/07 00:12:12;;;;;;;9.77;6.90;;;-0.10;96.70;;;;;;6178971;23;20220;-82
2021/03/07 00:14:40;;;;;;;11.80;6.97;;;-0.10;96.80;;;;;;6179276;23;20294;-83
2021/03/07 00:17:07;;;;;;;9.80;6.57;;;-0.20;97.70;;;;;;6178254;23;20212;-83
2021/03/07 00:19:34;;;;;;;10.90;7.20;;;-0.20;99.10;;;;;;6178074;23;20736;-83
2021/03/07 00:22:02;;;;;;;10.80;6.95;;;-0.20;97.80;;;;;;6179437;23;20202;-83
2021/03/07 00:24:29;;;;;;;11.80;7.00;;;-0.20;97.60;;;;;;6180690;23;20647;-83
2021/03/07 00:26:56;;;;;;;14.07;8.10;;;-0.30;97.80;;;;;;6181645;23;20269;-83
2021/03/07 00:29:23;;;;;;;12.77;8.75;;;-0.30;98.70;;;;;;6181605;23;20207;-85
2021/03/07 00:31:52;;;;;;;13.98;8.98;;;-0.30;99.30;;;;;;6181358;23;20221;-83
2021/03/07 00:34:19;;;;;;;12.10;8.48;;;-0.30;99.80;;;;;;6181986;23;20578;-83
2021/03/07 00:36:46;;;;;;;20.08;9.70;;;-0.30;99.80;;;;;;6182241;23;20285;-83
2021/03/07 00:39:13;;;;;;;15.30;9.23;;;-0.30;99.80;;;;;;6182628;23;20206;-83
2021/03/07 00:41:41;;;;;;;13.02;8.90;;;-0.30;99.80;;;;;;6182832;23;20208;-84
2021/03/07 00:44:09;;;;;;;15.63;10.07;;;-0.40;99.80;;;;;;6182437;23;20277;-83
2021/03/07 00:46:38;;;;;;;11.88;9.65;;;-0.40;99.80;;;;;;6183625;23;20276;-82
2021/03/07 00:49:07;;;;;;;16.40;9.55;;;-0.50;99.80;;;;;;6183652;23;20205;-83
2021/03/07 00:51:34;;;;;;;15.57;10.05;;;-0.50;99.80;;;;;;6183243;23;20730;-82
2021/03/07 00:54:01;;;;;;;14.77;9.55;;;-0.60;99.80;;;;;;6184217;23;20587;-83
2021/03/07 00:56:28;;;;;;;17.55;10.85;;;-0.60;99.80;;;;;;6214471;23;20225;-83
2021/03/07 00:58:55;;;;;;;18.10;10.60;;;-0.60;99.80;;;;;;6212798;23;20575;-83
2021/03/07 01:01:23;;;;;;;14.93;10.05;;;-0.60;99.80;;;;;;6213889;23;20293;-83
2021/03/07 01:03:52;;;;;;;14.98;10.13;;;-0.60;99.80;;;;;;6215149;23;20678;-84
2021/03/07 01:06:20;;;;;;;17.55;10.40;;;-0.60;99.80;;;;;;6215791;23;20205;-83
2021/03/07 01:08:47;;;;;;;12.02;10.25;;;-0.60;99.80;;;;;;6216756;23;20280;-83
2021/03/07 01:11:14;;;;;;;15.20;9.98;;;-0.70;99.80;;;;;;6215990;23;20207;-83
2021/03/07 01:13:41;;;;;;;19.67;11.93;;;-0.70;99.80;;;;;;6216125;23;20206;-83
2021/03/07 01:16:08;;;;;;;12.93;9.20;;;-0.70;99.80;;;;;;6212898;23;20202;-83
2021/03/07 01:18:35;;;;;;;20.90;9.90;;;-0.70;99.80;;;;;;6214880;23;20201;-83
2021/03/07 01:21:02;;;;;;;17.35;10.30;;;-0.60;99.80;;;;;;6215432;23;20204;-84
2021/03/07 01:23:33;;;;;;;17.17;10.05;;;-0.70;99.80;;;;;;6216676;23;20205;-83
2021/03/07 01:26:01;;;;;;;16.35;10.85;;;-0.70;99.80;;;;;;6217351;23;20209;-82
2021/03/07 01:28:28;;;;;;;20.42;10.00;;;-0.70;99.80;;;;;;6216874;23;20205;-83
2021/03/07 01:30:56;;;;;;;14.75;10.45;;;-0.70;99.80;;;;;;6217537;23;20228;-83
2021/03/07 01:33:23;;;;;;;15.93;10.65;;;-0.70;99.80;;;;;;6215745;23;20220;-83
2021/03/07 01:35:50;;;;;;;20.75;9.73;;;-0.80;99.80;;;;;;6216318;23;20208;-82
2021/03/07 01:38:18;;;;;;;11.68;9.05;;;-0.80;99.80;;;;;;6216401;23;20229;-82
2021/03/07 01:40:47;;;;;;;22.23;9.93;;;-0.80;99.80;;;;;;6215639;23;20261;-83
2021/03/07 01:43:15;;;;;;;15.35;9.55;;;-0.80;99.80;;;;;;6217662;23;20225;-83
2021/03/07 01:45:43;;;;;;;16.08;10.48;;;-0.80;99.80;;;;;;6217991;23;20284;-82
2021/03/07 01:48:12;;;;;;;14.82;9.40;;;-0.80;99.80;;;;;;6216806;23;20237;-83
2021/03/07 01:50:42;;;;;;;13.73;10.00;;;-0.80;99.80;;;;;;6214429;23;20669;-83
2021/03/07 01:53:10;;;;;;;15.70;10.15;;;-0.80;99.80;;;;;;6215000;23;20570;-82
2021/03/07 01:55:39;;;;;;;13.70;10.13;;;-0.70;99.80;;;;;;6212357;23;20727;-82
2021/03/07 01:58:11;;;;;;;14.48;9.27;;;-0.70;99.80;;;;;;6213146;23;20662;-82
2021/03/07 02:00:39;;;;;;;16.85;9.55;;;-0.70;99.80;;;;;;6214010;23;20207;-83
2021/03/07 02:03:07;;;;;;;11.45;9.00;;;-0.70;99.80;;;;;;6213228;23;20753;-83
2021/03/07 02:05:34;;;;;;;15.23;8.88;;;-0.60;99.80;;;;;;6213093;23;20205;-81
2021/03/07 02:08:03;;;;;;;16.70;8.68;;;-0.60;99.80;;;;;;6214431;23;20209;-82
2021/03/07 02:10:33;;;;;;;14.35;7.75;;;-0.50;99.80;;;;;;6212819;23;20202;-82
2021/03/07 02:13:03;;;;;;;15.30;8.57;;;-0.50;99.80;;;;;;6196729;23;20204;-82
2021/03/07 02:15:32;;;;;;;11.88;9.27;;;-0.40;99.80;;;;;;6212053;23;20687;-83
2021/03/07 02:18:00;;;;;;;16.20;9.55;;;-0.40;99.60;;;;;;6212263;23;20213;-82
2021/03/07 02:20:29;;;;;;;13.00;8.60;;;-0.50;99.80;;;;;;6184013;23;20273;-82
2021/03/07 02:23:00;;;;;;;12.35;8.80;;;-0.50;99.80;;;;;;6183771;23;20210;-83
2021/03/07 02:25:29;;;;;;;17.92;8.00;;;-0.60;99.80;;;;;;6213755;23;20215;-82
2021/03/07 02:27:59;;;;;;;8.35;7.45;;;-0.70;99.80;;;;;;6212624;23;20219;-82
2021/03/07 02:30:27;;;;;;;12.45;8.75;;;-0.80;99.80;;;;;;6213701;23;20272;-82
2021/03/07 02:33:06;;;;;;;13.73;8.45;;;-0.80;99.80;;;;;;6214343;23;20213;-82
2021/03/07 02:35:37;;;;;;;13.98;8.10;;;-0.90;99.80;;;;;;6183755;23;20213;-82
2021/03/07 02:38:06;;;;;;;13.38;8.57;;;-0.90;99.80;;;;;;6184401;23;20214;-82
2021/03/07 02:40:37;;;;;;;10.77;7.65;;;-1.00;99.80;;;;;;6183006;23;20545;-82
2021/03/07 02:43:10;;;;;;;13.20;8.68;;;-1.10;99.80;;;;;;6184183;23;20599;-83
2021/03/07 02:45:38;;;;;;;11.38;8.88;;;-1.10;99.80;;;;;;6185182;23;20269;-82
2021/03/07 02:48:08;;;;;;;14.02;9.75;;;-1.20;99.80;;;;;;6184418;23;20835;-82
2021/03/07 02:50:36;;;;;;;16.13;9.73;;;-1.20;99.80;;;;;;6181232;23;20531;-82
2021/03/07 02:53:06;;;;;;;11.40;8.65;;;-1.30;99.80;;;;;;6181547;23;20212;-82
2021/03/07 02:55:36;;;;;;;12.70;8.80;;;-1.30;99.80;;;;;;6181314;23;20758;-82
2021/03/07 02:58:05;;;;;;;12.02;8.82;;;-1.40;99.80;;;;;;6180546;23;20202;-82
2021/03/07 03:00:33;;;;;;;13.85;8.93;;;-1.40;99.80;;;;;;6181813;23;20750;-82
2021/03/07 03:03:06;;;;;;;12.95;8.82;;;-1.50;99.80;;;;;;6184534;23;20178;-81
2021/03/07 03:05:34;;;;;;;24.60;10.50;;;-1.50;99.80;;;;;;6185737;23;20246;-82
2021/03/07 03:08:02;;;;;;;17.70;11.30;;;-1.50;99.80;;;;;;6184916;23;20200;-83
2021/03/07 03:10:30;;;;;;;19.25;12.52;;;-1.60;99.80;;;;;;6184578;23;20174;-82
2021/03/07 03:13:01;;;;;;;20.23;12.90;;;-1.60;99.80;;;;;;6185656;23;20179;-82
2021/03/07 03:15:31;;;;;;;22.88;12.65;;;-1.60;99.80;;;;;;6185130;23;20178;-83
2021/03/07 03:17:59;;;;;;;23.95;13.13;;;-1.60;99.80;;;;;;6157606;23;20295;-83
2021/03/07 03:20:27;;;;;;;18.77;12.40;;;-1.60;99.80;;;;;;6184309;23;20206;-83
2021/03/07 03:22:57;;;;;;;23.70;13.23;;;-1.60;99.80;;;;;;6180598;23;20687;-82
2021/03/07 03:25:24;;;;;;;24.90;13.20;;;-1.60;99.80;;;;;;6179638;23;20202;-82
2021/03/07 03:27:55;;;;;;;23.92;13.55;;;-1.70;99.80;;;;;;6181237;23;20284;-82
2021/03/07 03:30:25;;;;;;;20.00;13.20;;;-1.70;99.80;;;;;;6179869;23;20216;-83
2021/03/07 03:32:53;;;;;;;21.40;12.93;;;-1.80;99.80;;;;;;6182106;23;20723;-84
2021/03/07 03:35:21;;;;;;;17.35;12.25;;;-1.80;99.80;;;;;;6182315;23;20214;-83
2021/03/07 03:37:49;;;;;;;21.30;12.88;;;-1.80;99.80;;;;;;6183218;23;20210;-84
2021/03/07 03:40:20;;;;;;;18.88;11.65;;;-1.80;99.80;;;;;;6180483;23;20282;-84
2021/03/07 03:42:53;;;;;;;19.88;12.48;;;-1.80;99.80;;;;;;6179399;23;20550;-84
2021/03/07 03:45:26;;;;;;;17.95;11.40;;;-1.80;99.80;;;;;;6180823;23;20205;-84
2021/03/07 03:48:00;;;;;;;18.17;12.43;;;-1.80;99.80;;;;;;6182040;23;20206;-82
2021/03/07 03:50:30;;;;;;;17.83;12.65;;;-1.80;99.80;;;;;;6181209;23;20263;-82
2021/03/07 03:53:00;;;;;;;18.55;11.07;;;-1.80;99.80;;;;;;6180300;23;20593;-83
2021/03/07 03:55:30;;;;;;;13.68;9.80;;;-1.70;99.80;;;;;;6181632;23;20716;-82
2021/03/07 03:58:04;;;;;;;20.50;11.23;;;-1.70;99.80;;;;;;6181246;23;20210;-82
2021/03/07 04:00:37;;;;;;;16.88;11.35;;;-1.80;99.80;;;;;;6180676;23;20247;-81
2021/03/07 04:03:06;;;;;;;18.70;11.07;;;-1.80;99.80;;;;;;6189839;23;20727;-82
2021/03/07 04:05:35;;;;;;;17.27;12.10;;;-1.80;99.80;;;;;;6182477;23;20210;-82
2021/03/07 04:08:05;;;;;;;18.60;11.30;;;-1.90;99.80;;;;;;6182588;23;20213;-82
2021/03/07 04:10:32;;;;;;;20.75;13.00;;;-1.90;99.80;;;;;;6182463;23;20284;-82
2021/03/07 04:13:01;;;;;;;18.30;10.75;;;-1.90;99.80;;;;;;6183812;23;20201;-83
2021/03/07 04:15:29;;;;;;;23.48;13.30;;;-1.90;99.80;;;;;;6182751;23;20275;-83
2021/03/07 04:17:57;;;;;;;22.10;12.50;;;-1.90;99.80;;;;;;6184291;23;20209;-83
2021/03/07 04:20:26;;;;;;;15.10;10.70;;;-1.90;99.80;;;;;;6182522;23;20832;-83
2021/03/07 04:22:54;;;;;;;17.65;11.10;;;-1.90;99.80;;;;;;6181049;23;20198;-83
2021/03/07 04:25:23;;;;;;;14.13;9.25;;;-1.80;99.80;;;;;;6181620;23;20624;-82
2021/03/07 04:27:51;;;;;;;14.80;8.35;;;-1.70;99.80;;;;;;6181435;23;20284;-83
2021/03/07 04:30:21;;;;;;;13.27;9.32;;;-1.70;99.80;;;;;;6181004;23;20210;-83
2021/03/07 04:32:49;;;;;;;14.43;9.52;;;-1.70;99.80;;;;;;6181378;23;20550;-83
2021/03/07 04:35:18;;;;;;;17.67;9.32;;;-1.70;99.80;;;;;;6180340;23;20690;-82
2021/03/07 04:37:45;;;;;;;14.07;9.05;;;-1.60;99.80;;;;;;6178590;23;20209;-82
2021/03/07 04:40:13;;;;;;;14.38;8.90;;;-1.60;99.80;;;;;;6169743;23;20215;-83
2021/03/07 04:42:41;;;;;;;14.63;9.00;;;-1.50;99.80;;;;;;6172537;23;20205;-84
2021/03/07 04:45:12;;;;;;;12.77;9.18;;;-1.50;99.80;;;;;;6172346;23;20194;-84
2021/03/07 04:47:39;;;;;;;24.20;10.30;;;-1.50;99.80;;;;;;6173653;23;20814;-82
2021/03/07 04:50:08;;;;;;;16.95;10.18;;;-1.50;99.80;;;;;;6155245;23;20202;-83
2021/03/07 04:52:36;;;;;;;12.30;8.85;;;-1.50;99.80;;;;;;6179163;23;20201;-83
2021/03/07 04:55:04;;;;;;;15.85;10.00;;;-1.50;99.80;;;;;;6161229;23;20213;-84
2021/03/07 04:57:31;;;;;;;13.48;9.15;;;-1.40;99.80;;;;;;6175822;23;20732;-83
2021/03/07 04:59:58;;;;;;;19.35;10.02;;;-1.40;99.80;;;;;;6176245;23;20277;-81
2021/03/07 05:02:25;;;;;;;14.38;8.98;;;-1.40;99.80;;;;;;6173701;23;20280;-82
2021/03/07 05:04:52;;;;;;;13.38;9.15;;;-1.40;99.80;;;;;;6169051;23;20228;-82
2021/03/07 05:07:19;;;;;;;13.27;9.93;;;-1.40;99.80;;;;;;6186351;23;20228;-82
2021/03/07 05:09:47;;;;;;;15.68;9.35;;;-1.40;99.80;;;;;;6186965;23;20280;-81
2021/03/07 05:12:14;;;;;;;14.55;11.38;;;-1.50;99.80;;;;;;6165043;23;20331;-82
2021/03/07 05:15:00;;;;;;;18.80;12.02;;;-1.60;99.80;;;;;;6169757;23;20257;-82
2021/03/07 05:17:27;;;;;;;17.58;12.50;;;-1.80;99.80;;;;;;6159414;23;20227;-83
2021/03/07 05:19:54;;;;;;;18.45;12.30;;;-1.90;99.80;;;;;;6178197;23;20217;-82
2021/03/07 05:22:21;;;;;;;17.65;12.00;;;-2.00;99.80;;;;;;6167411;23;20214;-81
2021/03/07 05:24:49;;;;;;;21.25;12.40;;;-2.20;99.80;;;;;;6164815;23;20202;-80
2021/03/07 05:27:16;;;;;;;20.27;13.23;;;-2.30;99.80;;;;;;6184945;23;20260;-80
2021/03/07 05:29:44;;;;;;;23.77;12.50;;;-2.30;99.80;;;;;;6184268;23;20224;-82
2021/03/07 05:32:11;;;;;;;16.70;12.45;;;-2.30;99.80;;;;;;6185586;23;20305;-81
2021/03/07 05:34:38;;;;;;;21.73;14.13;;;-2.30;99.80;;;;;;6174661;23;20198;-81
2021/03/07 05:37:05;;;;;;;20.05;13.93;;;-2.20;99.80;;;;;;6182446;23;20276;-81
2021/03/07 05:39:32;;;;;;;20.38;13.30;;;-2.20;99.80;;;;;;6185755;23;20211;-81
2021/03/07 05:42:01;;;;;;;19.60;12.65;;;-2.30;99.80;;;;;;6188554;23;20200;-81
2021/03/07 05:44:29;;;;;;;19.63;11.98;;;-2.30;99.80;;;;;;6211741;22;20208;-82
2021/03/07 05:46:57;;;;;;;20.63;12.55;;;-2.30;99.80;;;;;;6203142;23;20262;-81
2021/03/07 05:49:24;;;;;;;17.85;11.85;;;-2.30;99.80;;;;;;6208419;23;20276;-83
2021/03/07 05:51:51;;;;;;;17.38;11.30;;;-2.30;99.80;;;;;;6208929;23;20201;-81
2021/03/07 05:54:20;;;;;;;24.55;10.73;;;-2.20;99.80;;;;;;6224233;22;20234;-80
2021/03/07 05:56:49;;;;;;;17.65;10.70;;;-2.00;99.80;;;;;;6211951;23;20203;-82
2021/03/07 05:59:17;;;;;;;20.95;11.68;;;-1.80;99.80;;;;;;6236776;23;20215;-81
2021/03/07 06:01:44;;;;;;;19.70;11.02;;;-1.80;99.80;;;;;;6219178;23;20216;-82
2021/03/07 06:04:12;;;;;;;16.13;10.35;;;-1.80;99.80;;;;;;6220870;23;20272;-81
2021/03/07 06:06:39;;;;;;;19.17;11.35;;;-1.80;99.80;;;;;;6210906;23;20237;-82
2021/03/07 06:09:21;;;;;;;18.33;11.25;;;-1.70;99.80;;;;;;6219614;23;20204;-81
2021/03/07 06:11:49;;;;;;;16.23;10.35;;;-1.50;99.80;;;;;;6218729;23;20217;-83
2021/03/07 06:14:23;;;;;;;17.73;10.98;;;-1.50;99.80;;;;;;6203333;23;20287;-82
2021/03/07 06:17:02;;;;;;;17.95;10.13;;;-1.50;99.80;;;;;;6212270;23;20201;-83
2021/03/07 06:19:30;;;;;;;23.45;9.57;;;-1.50;99.80;;;;;;6212286;23;20259;-81
2021/03/07 06:22:12;;;;;;;16.85;9.73;;;-1.60;99.80;;;;;;6202731;23;20197;-81
2021/03/07 06:24:41;;;;;;;16.30;11.20;;;-1.60;99.80;;;;;;6207271;23;20203;-82
2021/03/07 06:27:10;;;;;;;16.98;10.65;;;-1.70;99.80;;;;;;6228826;23;20200;-81
2021/03/07 06:29:53;;;;;;;17.95;11.55;;;-1.80;99.80;;;;;;6227616;23;20753;-81
2021/03/07 06:32:20;;;;;;;17.17;12.10;;;-1.80;99.80;;;;;;6186205;23;20256;-81
2021/03/07 06:34:48;;;;;;;17.52;11.30;;;-1.80;99.80;;;;;;6183507;23;20220;-83
2021/03/07 06:37:16;;;;;;;19.33;11.60;;;-1.80;99.80;;;;;;6178220;23;20232;-82
2021/03/07 06:39:46;;;;;;;19.83;11.32;;;-1.80;99.80;;;;;;6201420;23;20201;-80
2021/03/07 06:42:14;;;;;;;17.55;11.00;;;-1.80;99.80;;;;;;6188091;23;20205;-83
2021/03/07 06:44:54;;;;;;;15.57;11.00;;;-1.80;99.80;;;;;;6188143;23;20257;-81
2021/03/07 06:47:22;;;;;;;19.08;11.30;;;-1.70;99.80;;;;;;6175215;23;20217;-80
2021/03/07 06:50:05;;;;;;;15.68;10.73;;;-1.60;99.80;;;;;;6190749;23;20200;-82
2021/03/07 06:52:32;;;;;;;17.45;12.10;;;-1.50;99.80;;;;;;6180063;23;20209;-81
2021/03/07 06:55:04;;;;;;;17.98;11.88;;;-1.40;99.80;;;;;;6181410;23;20280;-82
2021/03/07 06:57:31;;;;;;;19.50;11.55;;;-1.40;99.80;;;;;;6168501;23;20225;-82
2021/03/07 07:00:00;;;;;;;16.80;12.63;;;-1.30;99.80;;;;;;6177316;23;20296;-84
2021/03/07 07:02:27;;;;;;;27.13;12.45;;;-1.20;99.80;;;;;;6167491;23;20213;-83
2021/03/07 07:04:54;;;;;;;20.23;11.93;;;-1.20;99.80;;;;;;6201039;23;20244;-81
2021/03/07 07:07:22;;;;;;;24.35;12.40;;;-1.10;99.80;;;;;;6180843;23;20204;-82
2021/03/07 07:09:57;;;;;;;24.52;12.50;;;-1.00;99.80;;;;;;6181923;23;20728;-81
2021/03/07 07:12:26;;;;;;;22.23;11.63;;;-1.00;99.80;;;;;;6181163;23;20205;-83
2021/03/07 07:15:09;;;;;;;22.17;12.50;;;-1.00;99.80;;;;;;6181139;23;20205;-82
2021/03/07 07:17:36;;;;;;;19.98;12.55;;;-1.00;99.80;;;;;;6180456;23;20535;-82
2021/03/07 07:20:06;;;;;;;23.58;12.25;;;-0.90;99.80;;;;;;6180432;23;20586;-83
2021/03/07 07:22:33;;;;;;;18.75;11.77;;;-0.80;99.80;;;;;;6180051;23;20658;-82
2021/03/07 07:25:01;;;;;;;28.23;12.48;;;-0.80;99.80;;;;;;6179099;23;20202;-82
2021/03/07 07:27:30;;;;;;;16.52;11.10;;;-0.70;99.80;;;;;;6180872;23;20216;-82
2021/03/07 07:29:57;;;;;;;18.95;10.77;;;-0.60;99.80;;;;;;6180607;23;20202;-82
2021/03/07 07:32:31;;;;;;;17.27;10.40;;;-0.50;99.80;;;;;;6180258;23;20205;-82
2021/03/07 07:35:02;;;;;;;20.25;11.55;;;-0.40;99.80;;;;;;6180064;23;20505;-82
2021/03/07 07:37:34;;;;;;;19.25;10.77;;;-0.30;99.80;;;;;;6179650;23;20240;-82
2021/03/07 07:40:02;;;;;;;14.60;9.43;;;-0.20;99.80;;;;;;6180279;23;20210;-83
2021/03/07 07:42:31;;;;;;;15.80;9.85;;;-0.20;99.80;;;;;;6179377;23;20220;-85
2021/03/07 07:44:59;;;;;;;14.73;10.07;;;-0.10;99.80;;;;;;6179125;23;20289;-83
2021/03/07 07:47:40;;;;;;;15.55;9.75;;;0.00;99.80;;;;;;6179589;23;20217;-82
2021/03/07 07:50:24;;;;;;;13.48;9.88;;;0.10;99.80;;;;;;6179269;23;20202;-82
2021/03/07 07:52:51;;;;;;;17.95;11.23;;;0.20;99.80;;;;;;6209751;23;20205;-84
2021/03/07 07:55:19;;;;;;;15.73;9.50;;;0.30;99.80;;;;;;6209061;23;20210;-83
2021/03/07 07:57:51;;;;;;;17.45;10.68;;;0.40;99.80;;;;;;6209766;23;20284;-84
2021/03/07 08:00:43;;;;;;;17.88;9.90;;;0.40;99.80;;;;;;6209200;23;20205;-84
2021/03/07 08:03:30;;;;;;;14.85;9.50;;;0.50;99.80;;;;;;6210195;23;20222;-83
2021/03/07 08:05:57;;;;;;;15.30;9.70;;;0.60;99.80;;;;;;6208717;23;20193;-83
2021/03/07 08:08:31;;;;;;;13.10;9.30;;;0.70;99.80;;;;;;6209115;23;20753;-84
2021/03/07 08:10:59;;;;;;;16.08;10.00;;;0.70;99.80;;;;;;6208004;23;20206;-83
2021/03/07 08:13:47;;;;;;;16.08;11.20;;;0.80;99.80;;;;;;6208189;23;20691;-83
2021/03/07 08:16:29;;;;;;;20.50;10.32;;;0.90;99.80;;;;;;6178462;23;20217;-82
2021/03/07 08:18:57;;;;;;;15.90;10.65;;;0.90;99.80;;;;;;6207005;23;20284;-83
2021/03/07 08:21:24;;;;;;;12.55;9.45;;;1.00;99.80;;;;;;6209061;23;20202;-83
2021/03/07 08:24:00;;;;;;;15.02;10.93;;;1.00;99.80;;;;;;6209298;23;20211;-82
2021/03/07 08:26:44;;;;;;;14.60;9.88;;;0.90;99.80;;;;;;6208956;23;20574;-82
2021/03/07 08:29:45;;;;;;;17.23;10.05;;;0.90;99.80;;;;;;6207893;23;20237;-83
2021/03/07 08:32:32;;;;;;;13.35;9.25;;;1.10;99.80;;;;;;6210320;23;20680;-82
2021/03/07 08:35:09;;;;;;;15.80;8.95;;;1.30;99.80;;;;;;6209209;23;20209;-82
2021/03/07 08:37:36;;;;;;;17.52;9.70;;;1.40;99.80;;;;;;6209169;23;20301;-82
2021/03/07 08:40:33;;;;;;;14.50;9.85;;;1.60;99.80;;;;;;6209429;23;20678;-82
2021/03/07 08:43:33;;;;;;;14.52;9.65;;;1.70;99.80;;;;;;6208383;23;20553;-81
2021/03/07 08:46:01;;;;;;;17.35;10.02;;;1.80;99.80;;;;;;6210865;23;20208;-84
2021/03/07 08:48:29;;;;;;;14.13;9.98;;;1.90;99.80;;;;;;6210167;23;20369;-82
2021/03/07 08:50:59;;;;;;;14.95;9.32;;;2.00;99.80;;;;;;6209421;23;20283;-84
2021/03/07 08:53:28;;;;;;;17.05;9.20;;;2.20;99.80;;;;;;6210505;23;20206;-85
2021/03/07 08:55:55;;;;;;;12.65;9.70;;;2.30;99.80;;;;;;6211393;23;20219;-84
2021/03/07 08:58:23;;;;;;;13.90;9.98;;;2.50;99.80;;;;;;6210830;23;20685;-85
2021/03/07 09:00:52;;;;;;;18.15;9.95;;;2.60;99.80;;;;;;6211276;23;20282;-84
2021/03/07 09:03:21;;;;;;;15.25;10.07;;;2.60;99.80;;;;;;6210445;23;20212;-84
2021/03/07 09:05:49;;;;;;;12.18;8.82;;;2.70;99.00;;;;;;6208963;23;20204;-85
2021/03/07 09:08:21;;;;;;;13.65;9.88;;;2.80;98.90;;;;;;6210260;23;20282;-86
2021/03/07 09:10:52;;;;;;;17.30;10.18;;;2.90;98.30;;;;;;6209745;23;20202;-84
2021/03/07 09:13:21;;;;;;;11.75;10.43;;;3.10;99.80;;;;;;6209493;23;20291;-84
2021/03/07 09:15:54;;;;;;;11.93;8.60;;;3.30;99.80;;;;;;6209233;23;20204;-85
2021/03/07 09:18:24;;;;;;;14.75;8.38;;;3.50;97.10;;;;;;6209307;23;20300;-86
2021/03/07 09:20:54;;;;;;;145.02;62.50;;;3.70;94.40;;;;;;6209340;23;20810;-85
2021/03/07 09:23:35;;;;;;;111.07;45.00;;;3.80;93.20;;;;;;6210599;23;20275;-86
2021/03/07 09:26:05;;;;;;;31.15;17.00;;;3.90;91.20;;;;;;6210348;23;20206;-85
2021/03/07 09:28:43;;;;;;;20.80;11.95;;;4.00;93.40;;;;;;6210399;23;20212;-85
2021/03/07 09:31:14;;;;;;;97.53;64.65;;;4.10;94.10;;;;;;6210964;23;20255;-86
2021/03/07 09:33:47;;;;;;;26.52;17.45;;;4.20;94.00;;;;;;6211256;23;20207;-86
2021/03/07 09:36:15;;;;;;;18.23;14.68;;;4.30;93.90;;;;;;6197970;23;20219;-86
2021/03/07 09:38:49;;;;;;;18.10;13.00;;;4.30;93.30;;;;;;6184275;23;20297;-87
2021/03/07 09:41:26;;;;;;;11.38;8.43;;;4.50;93.30;;;;;;6209992;23;20287;-86
2021/03/07 09:43:54;;;;;;;12.50;8.90;;;4.60;92.40;;;;;;6210129;23;20234;-86
2021/03/07 09:46:22;;;;;;;13.25;8.85;;;4.80;92.40;;;;;;6207294;23;20223;-87
2021/03/07 09:48:53;;;;;;;11.60;8.90;;;4.70;92.30;;;;;;6168729;23;20255;-86
2021/03/07 09:51:21;;;;;;;11.80;8.80;;;4.80;92.10;;;;;;6187614;23;20438;-86
2021/03/07 09:53:49;;;;;;;12.35;8.45;;;4.80;91.80;;;;;;6181607;23;20652;-85
2021/03/07 09:56:24;;;;;;;10.85;8.65;;;4.90;91.20;;;;;;6181816;23;20568;-86
2021/03/07 09:58:51;;;;;;;12.73;8.68;;;4.90;90.30;;;;;;6179542;23;20226;-86
2021/03/07 10:01:18;;;;;;;10.82;8.18;;;5.00;90.10;;;;;;6177742;23;20272;-82
2021/03/07 10:03:45;;;;;;;9.60;8.50;;;5.10;89.50;;;;;;6152780;23;20664;-85
2021/03/07 10:06:16;;;;;;;10.95;8.95;;;5.20;89.10;;;;;;6177788;23;20535;-84
2021/03/07 10:08:45;;;;;;;12.63;8.33;;;5.40;88.60;;;;;;6162125;23;20283;-82
2021/03/07 10:11:20;;;;;;;8.67;7.37;;;5.50;88.20;;;;;;6194813;23;20440;-87
2021/03/07 10:13:58;;;;;;;9.05;7.80;;;5.60;86.20;;;;;;6206555;23;20931;-87
2021/03/07 10:16:26;;;;;;;8.30;7.37;;;5.80;86.60;;;;;;6204181;23;20602;-86
2021/03/07 10:19:10;;;;;;;12.77;7.33;;;5.90;85.30;;;;;;6197884;23;20967;-85
2021/03/07 10:21:38;;;;;;;11.87;7.80;;;6.00;83.70;;;;;;6175821;23;25282;-86
2021/03/07 10:24:11;;;;;;;13.63;7.30;;;6.10;83.20;;;;;;6181082;23;20444;-85
2021/03/07 10:26:41;;;;;;;8.50;6.57;;;6.20;83.90;;;;;;6202626;23;20432;-84
2021/03/07 10:29:24;;;;;;;10.33;7.23;;;6.30;82.90;;;;;;6190618;23;20436;-86
2021/03/07 10:32:18;;;;;;;8.37;6.60;;;6.40;81.90;;;;;;6150038;23;20441;-83
2021/03/07 10:34:49;;;;;;;11.48;6.95;;;6.50;81.60;;;;;;6166680;23;20428;-87
2021/03/07 10:37:36;;;;;;;7.90;7.00;;;6.60;80.50;;;;;;6164855;23;20284;-87
2021/03/07 10:40:07;;;;;;;9.17;7.70;;;6.80;80.30;;;;;;6148930;23;20436;-86
2021/03/07 10:42:36;;;;;;;8.47;6.97;;;7.00;81.10;;;;;;6206373;23;20499;-85
2021/03/07 10:45:17;;;;;;;13.47;6.70;;;7.20;80.80;;;;;;6210037;23;20432;-85
2021/03/07 10:47:44;;;;;;;8.50;6.67;;;7.40;78.00;;;;;;6207319;23;20444;-85
2021/03/07 10:50:12;;;;;;;9.40;7.13;;;7.70;77.60;;;;;;6195092;23;20447;-86
2021/03/07 10:52:40;;;;;;;10.93;7.97;;;7.90;78.20;;;;;;6181827;23;20432;-88
2021/03/07 10:55:15;;;;;;;9.63;7.20;;;8.00;76.50;;;;;;6166993;23;20451;-87
2021/03/07 10:57:44;;;;;;;10.43;7.03;;;8.00;75.50;;;;;;6207423;23;20435;-85
2021/03/07 11:00:13;;;;;;;8.53;5.50;;;8.20;74.90;;;;;;6193252;23;20442;-85
2021/03/07 11:02:41;;;;;;;10.27;6.50;;;8.20;74.90;;;;;;6180166;23;20536;-87
2021/03/07 11:05:10;;;;;;;15.87;6.47;;;8.30;75.50;;;;;;6179650;23;20452;-86
2021/03/07 11:07:37;;;;;;;7.63;6.30;;;8.40;74.80;;;;;;6163857;23;21045;-86
2021/03/07 11:10:07;;;;;;;19.10;6.90;;;8.60;74.20;;;;;;6179841;23;21036;-86
2021/03/07 11:12:34;;;;;;;7.90;6.47;;;8.70;74.30;;;;;;6179272;23;20509;-85
2021/03/07 11:15:03;;;;;;;11.50;7.23;;;8.80;74.50;;;;;;6152624;23;20448;-85
2021/03/07 11:17:30;;;;;;;9.40;7.30;;;9.00;73.40;;;;;;6178873;23;20462;-86
2021/03/07 11:19:57;;;;;;;8.40;6.67;;;9.10;72.60;;;;;;6180990;23;20952;-85
2021/03/07 11:22:25;;;;;;;9.63;7.27;;;9.20;71.30;;;;;;6162861;23;20436;-87
2021/03/07 11:24:52;;;;;;;7.73;5.97;;;9.30;70.80;;;;;;6193546;23;20759;-86
2021/03/07 11:27:19;;;;;;;8.10;6.90;;;9.60;70.40;;;;;;6208912;23;20506;-87
2021/03/07 11:29:46;;;;;;;8.60;5.90;;;10.00;71.20;;;;;;6208303;23;20451;-81
2021/03/07 11:32:14;;;;;;;8.43;5.80;;;10.30;68.70;;;;;;6192137;23;20449;-86
2021/03/07 11:34:42;;;;;;;8.80;5.97;;;10.60;68.00;;;;;;6180335;23;20438;-83
2021/03/07 11:37:09;;;;;;;8.70;5.73;;;11.40;67.80;;;;;;6152940;23;20444;-79
2021/03/07 11:39:36;;;;;;;10.30;5.97;;;14.50;59.60;;;;;;6176822;23;20536;-81
2021/03/07 11:42:04;;;;;;;6.40;5.50;;;21.30;45.90;;;;;;6192911;23;20516;-87
2021/03/07 11:44:32;;;;;;;7.43;6.03;;;21.30;45.90;;;;;;6164495;23;20443;-86
2021/03/07 11:46:59;;;;;;;6.03;5.20;;;23.10;42.40;;;;;;6179075;23;20448;-86
2021/03/07 11:49:41;;;;;;;5.20;4.70;;;25.60;37.60;;;;;;6162017;23;20443;-87
2021/03/07 11:52:10;;;;;;;7.17;5.00;;;26.50;36.40;;;;;;6149261;23;20523;-85
2021/03/07 11:54:38;;;;;;;5.23;4.70;;;26.10;35.40;;;;;;6175041;23;20452;-86
2021/03/07 11:57:06;;;;;;;5.87;4.73;;;26.40;36.20;;;;;;6206409;23;20463;-86
2021/03/07 11:59:33;;;;;;;5.30;4.80;;;26.60;34.70;;;;;;6208761;23;20534;-86
2021/03/07 12:02:01;;;;;;;5.70;5.10;;;27.10;34.10;;;;;;6206066;23;20514;-87
2021/03/07 12:04:28;;;;;;;6.83;4.80;;;27.20;33.80;;;;;;6175770;23;20440;-86
2021/03/07 12:06:56;;;;;;;5.40;4.60;;;27.80;33.60;;;;;;6176959;23;20448;-87
2021/03/07 12:09:24;;;;;;;6.27;5.13;;;;;;;;;;6177424;23;20501;-87
2021/03/07 12:11:51;;;;;;;5.37;4.87;;;;;;;;;;6193061;23;20519;-86
2021/03/07 12:14:18;;;;;;;5.20;4.80;;;27.60;32.60;;;;;;6178750;23;20440;-86
2021/03/07 12:16:45;;;;;;;5.60;5.00;;;;;;;;;;6177194;23;20435;-86
2021/03/07 12:19:13;;;;;;;6.30;5.43;;;;;;;;;;6162277;23;20984;-85
2021/03/07 12:21:40;;;;;;;5.13;4.73;;;;;;;;;;6170967;23;20534;-86
2021/03/07 12:24:09;;;;;;;5.63;5.03;;;28.10;32.00;;;;;;6176102;23;20456;-86
2021/03/07 12:26:36;;;;;;;6.43;5.33;;;;;;;;;;6191460;23;20428;-87
2021/03/07 12:29:04;;;;;;;5.13;4.63;;;28.10;32.20;;;;;;6207934;23;20949;-87
2021/03/07 12:31:31;;;;;;;7.00;5.47;;;28.20;30.50;;;;;;6205930;23;20447;-87
2021/03/07 12:33:59;;;;;;;7.00;5.57;;;;;;;;;;6205772;23;21011;-86
2021/03/07 12:36:27;;;;;;;6.03;5.37;;;29.40;30.00;;;;;;6178176;23;20475;-87
2021/03/07 12:38:54;;;;;;;4.70;4.30;;;29.40;30.00;;;;;;6159771;23;21165;-87
2021/03/07 12:41:22;;;;;;;9.33;4.40;;;29.20;29.70;;;;;;6203001;23;20438;-90
2021/03/07 12:43:49;;;;;;;5.77;5.13;;;;;;;;;;6203833;23;20436;-88
2021/03/07 12:46:16;;;;;;;6.00;5.40;;;29.00;28.70;;;;;;6162730;23;20436;-86
2021/03/07 12:48:44;;;;;;;5.83;4.67;;;;;;;;;;6178160;23;20432;-84
2021/03/07 12:51:11;;;;;;;4.73;4.33;;;29.00;28.80;;;;;;6177693;23;20444;-86
2021/03/07 12:53:38;;;;;;;5.60;4.83;;;;;;;;;;6152758;23;20443;-85
2021/03/07 12:56:07;;;;;;;4.67;4.10;;;27.70;28.60;;;;;;6179456;23;20444;-83